sensor_id;sensor_type;location;lat;lon;timestamp;pressure;altitude;pressure_sealevel;temperature;humidity
21096;BME280;10706;49.036;12.112;2023-04-08T00:02:10;97748.19;;;5.14;62.69
21096;BME280;10706;49.036;12.112;2023-04-08T00:04:36;97748.78;;;5.09;62.45
21096;BME280;10706;49.036;12.112;2023-04-08T00:07:02;97750.41;;;5.03;62.90
21096;BME280;10706;49.036;12.112;2023-04-08T00:09:27;97748.34;;;4.92;64.13
21096;BME280;10706;49.036;12.112;2023-04-08T00:11:53;97753.41;;;4.87;63.63
21096;BME280;10706;49.036;12.112;2023-04-08T00:14:19;97756.44;;;4.84;63.65
21096;BME280;10706;49.036;12.112;2023-04-08T00:16:44;97757.41;;;4.76;64.77
21096;BME280;10706;49.036;12.112;2023-04-08T00:19:10;97755.38;;;4.72;65.59
21096;BME280;10706;49.036;12.112;2023-04-08T00:21:36;97759.88;;;4.71;63.78
21096;BME280;10706;49.036;12.112;2023-04-08T00:24:02;97754.59;;;4.78;63.84
21096;BME280;10706;49.036;12.112;2023-04-08T00:26:28;97761.53;;;4.79;63.95
21096;BME280;10706;49.036;12.112;2023-04-08T00:28:54;97756.59;;;4.76;64.33
21096;BME280;10706;49.036;12.112;2023-04-08T00:31:19;97753.53;;;4.72;64.06
21096;BME280;10706;49.036;12.112;2023-04-08T00:33:46;97762.47;;;4.64;64.27
21096;BME280;10706;49.036;12.112;2023-04-08T00:36:11;97768.00;;;4.70;64.19
21096;BME280;10706;49.036;12.112;2023-04-08T00:38:37;97768.75;;;4.63;64.56
21096;BME280;10706;49.036;12.112;2023-04-08T00:41:03;97761.47;;;4.65;62.84
21096;BME280;10706;49.036;12.112;2023-04-08T00:43:28;97771.81;;;4.60;63.20
21096;BME280;10706;49.036;12.112;2023-04-08T00:45:54;97770.19;;;4.66;62.54
21096;BME280;10706;49.036;12.112;2023-04-08T00:48:20;97766.09;;;4.57;64.36
21096;BME280;10706;49.036;12.112;2023-04-08T00:50:46;97771.13;;;4.52;63.80
21096;BME280;10706;49.036;12.112;2023-04-08T00:53:17;97773.22;;;4.56;64.04
21096;BME280;10706;49.036;12.112;2023-04-08T00:55:43;97770.19;;;4.66;63.76
21096;BME280;10706;49.036;12.112;2023-04-08T00:58:10;97772.63;;;4.61;63.03
21096;BME280;10706;49.036;12.112;2023-04-08T01:00:43;97774.03;;;4.63;64.00
21096;BME280;10706;49.036;12.112;2023-04-08T01:03:23;97770.34;;;4.51;64.14
21096;BME280;10706;49.036;12.112;2023-04-08T01:06:28;97771.88;;;4.39;64.31
21096;BME280;10706;49.036;12.112;2023-04-08T01:08:56;97773.03;;;4.29;65.54
21096;BME280;10706;49.036;12.112;2023-04-08T01:11:26;97784.81;;;4.27;64.52
21096;BME280;10706;49.036;12.112;2023-04-08T01:13:55;97768.72;;;4.22;64.29
21096;BME280;10706;49.036;12.112;2023-04-08T01:16:23;97778.06;;;4.18;64.22
21096;BME280;10706;49.036;12.112;2023-04-08T01:18:50;97772.97;;;4.16;65.29
21096;BME280;10706;49.036;12.112;2023-04-08T01:21:19;97773.16;;;4.15;64.89
21096;BME280;10706;49.036;12.112;2023-04-08T01:24:08;97768.25;;;4.12;64.95
21096;BME280;10706;49.036;12.112;2023-04-08T01:26:39;97770.66;;;4.06;64.99
21096;BME280;10706;49.036;12.112;2023-04-08T01:29:05;97772.50;;;4.06;65.27
21096;BME280;10706;49.036;12.112;2023-04-08T01:31:32;97773.91;;;4.02;65.47
21096;BME280;10706;49.036;12.112;2023-04-08T01:33:59;97775.25;;;3.98;66.31
21096;BME280;10706;49.036;12.112;2023-04-08T01:36:27;97765.91;;;3.95;65.86
21096;BME280;10706;49.036;12.112;2023-04-08T01:38:55;97771.44;;;4.00;66.15
21096;BME280;10706;49.036;12.112;2023-04-08T01:41:21;97765.53;;;3.98;64.63
21096;BME280;10706;49.036;12.112;2023-04-08T01:43:47;97766.34;;;3.99;65.98
21096;BME280;10706;49.036;12.112;2023-04-08T01:46:14;97769.41;;;4.02;64.79
21096;BME280;10706;49.036;12.112;2023-04-08T01:48:42;97773.91;;;4.02;64.50
21096;BME280;10706;49.036;12.112;2023-04-08T01:51:09;97776.72;;;4.00;66.23
21096;BME280;10706;49.036;12.112;2023-04-08T01:53:35;97772.22;;;3.94;67.87
21096;BME280;10706;49.036;12.112;2023-04-08T01:56:08;97767.25;;;3.84;68.37
21096;BME280;10706;49.036;12.112;2023-04-08T01:58:46;97773.09;;;3.80;70.23
21096;BME280;10706;49.036;12.112;2023-04-08T02:01:17;97772.03;;;3.74;69.67
21096;BME280;10706;49.036;12.112;2023-04-08T02:03:45;97770.81;;;3.70;70.00
21096;BME280;10706;49.036;12.112;2023-04-08T02:06:12;97769.97;;;3.69;68.50
21096;BME280;10706;49.036;12.112;2023-04-08T02:08:37;97772.59;;;3.69;68.71
21096;BME280;10706;49.036;12.112;2023-04-08T02:11:03;97767.13;;;3.71;69.41
21096;BME280;10706;49.036;12.112;2023-04-08T02:13:30;97775.69;;;3.73;68.45
21096;BME280;10706;49.036;12.112;2023-04-08T02:16:28;97766.59;;;3.76;67.57
21096;BME280;10706;49.036;12.112;2023-04-08T02:18:59;97767.25;;;3.84;67.37
21096;BME280;10706;49.036;12.112;2023-04-08T02:21:34;97774.03;;;3.94;66.29
21096;BME280;10706;49.036;12.112;2023-04-08T02:24:04;97776.31;;;4.03;65.26
21096;BME280;10706;49.036;12.112;2023-04-08T02:26:33;97773.03;;;4.29;64.09
21096;BME280;10706;49.036;12.112;2023-04-08T02:29:02;97775.03;;;4.56;63.02
21096;BME280;10706;49.036;12.112;2023-04-08T02:31:30;97769.16;;;4.60;63.34
21096;BME280;10706;49.036;12.112;2023-04-08T02:33:58;97773.47;;;4.68;63.13
21096;BME280;10706;49.036;12.112;2023-04-08T02:36:25;97771.47;;;4.77;62.00
21096;BME280;10706;49.036;12.112;2023-04-08T02:38:51;97775.31;;;4.74;63.56
21096;BME280;10706;49.036;12.112;2023-04-08T02:41:17;97773.22;;;4.63;62.53
21096;BME280;10706;49.036;12.112;2023-04-08T02:43:42;97777.59;;;4.84;61.43
21096;BME280;10706;49.036;12.112;2023-04-08T02:46:09;97778.38;;;4.78;62.69
21096;BME280;10706;49.036;12.112;2023-04-08T02:48:35;97775.59;;;4.93;62.28
21096;BME280;10706;49.036;12.112;2023-04-08T02:51:01;97773.56;;;4.95;61.36
21096;BME280;10706;49.036;12.112;2023-04-08T02:53:27;97772.56;;;5.02;62.02
21096;BME280;10706;49.036;12.112;2023-04-08T02:55:53;97776.44;;;5.06;62.09
21096;BME280;10706;49.036;12.112;2023-04-08T02:58:18;97772.53;;;4.89;61.98
21096;BME280;10706;49.036;12.112;2023-04-08T03:00:44;97780.09;;;4.92;61.65
21096;BME280;10706;49.036;12.112;2023-04-08T03:03:10;97777.16;;;4.80;61.92
21096;BME280;10706;49.036;12.112;2023-04-08T03:05:36;97771.06;;;4.80;63.08
21096;BME280;10706;49.036;12.112;2023-04-08T03:08:01;97774.28;;;4.68;62.92
21096;BME280;10706;49.036;12.112;2023-04-08T03:10:27;97776.22;;;4.88;63.36
21096;BME280;10706;49.036;12.112;2023-04-08T03:12:53;97773.91;;;4.72;62.76
21096;BME280;10706;49.036;12.112;2023-04-08T03:15:19;97776.78;;;4.77;63.62
21096;BME280;10706;49.036;12.112;2023-04-08T03:17:44;97778.75;;;4.68;64.31
21096;BME280;10706;49.036;12.112;2023-04-08T03:20:10;97778.78;;;4.75;64.26
21096;BME280;10706;49.036;12.112;2023-04-08T03:22:36;97786.50;;;4.70;63.93
21096;BME280;10706;49.036;12.112;2023-04-08T03:25:02;97785.25;;;4.65;64.48
21096;BME280;10706;49.036;12.112;2023-04-08T03:27:28;97781.75;;;4.58;64.89
21096;BME280;10706;49.036;12.112;2023-04-08T03:29:54;97783.97;;;4.55;64.87
21096;BME280;10706;49.036;12.112;2023-04-08T03:32:22;97779.50;;;4.55;64.96
21096;BME280;10706;49.036;12.112;2023-04-08T03:34:48;97789.47;;;4.53;63.93
21096;BME280;10706;49.036;12.112;2023-04-08T03:37:18;97793.31;;;4.51;64.39
21096;BME280;10706;49.036;12.112;2023-04-08T03:39:44;97791.06;;;4.47;63.87
21096;BME280;10706;49.036;12.112;2023-04-08T03:42:10;97788.78;;;4.44;64.33
21096;BME280;10706;49.036;12.112;2023-04-08T03:44:36;97790.25;;;4.47;64.87
21096;BME280;10706;49.036;12.112;2023-04-08T03:47:02;97788.66;;;4.53;63.37
21096;BME280;10706;49.036;12.112;2023-04-08T03:49:28;97793.16;;;4.59;63.83
21096;BME280;10706;49.036;12.112;2023-04-08T03:51:54;97793.59;;;4.69;63.83
21096;BME280;10706;49.036;12.112;2023-04-08T03:54:20;97793.59;;;4.69;63.29
21096;BME280;10706;49.036;12.112;2023-04-08T03:56:45;97793.38;;;4.64;63.01
21096;BME280;10706;49.036;12.112;2023-04-08T03:59:11;97794.63;;;4.68;64.25
21096;BME280;10706;49.036;12.112;2023-04-08T04:01:37;97800.09;;;4.66;64.26
21096;BME280;10706;49.036;12.112;2023-04-08T04:04:02;97801.94;;;4.66;64.61
21096;BME280;10706;49.036;12.112;2023-04-08T04:06:28;97802.19;;;4.78;63.66
21096;BME280;10706;49.036;12.112;2023-04-08T04:08:54;97809.69;;;4.67;64.65
21096;BME280;10706;49.036;12.112;2023-04-08T04:11:20;97805.38;;;4.60;63.84
21096;BME280;10706;49.036;12.112;2023-04-08T04:13:47;97815.53;;;4.56;65.47
21096;BME280;10706;49.036;12.112;2023-04-08T04:16:13;97812.72;;;4.64;64.80
21096;BME280;10706;49.036;12.112;2023-04-08T04:18:39;97811.72;;;4.65;65.04
21096;BME280;10706;49.036;12.112;2023-04-08T04:21:05;97815.72;;;4.61;65.23
21096;BME280;10706;49.036;12.112;2023-04-08T04:23:32;97811.28;;;4.62;65.16
21096;BME280;10706;49.036;12.112;2023-04-08T04:25:57;97823.28;;;4.64;66.52
21096;BME280;10706;49.036;12.112;2023-04-08T04:28:23;97816.75;;;4.60;65.99
21096;BME280;10706;49.036;12.112;2023-04-08T04:30:49;97818.00;;;4.64;65.77
21096;BME280;10706;49.036;12.112;2023-04-08T04:33:15;97822.19;;;4.52;66.80
21096;BME280;10706;49.036;12.112;2023-04-08T04:35:40;97820.16;;;4.54;65.12
21096;BME280;10706;49.036;12.112;2023-04-08T04:38:06;97820.50;;;4.44;66.27
21096;BME280;10706;49.036;12.112;2023-04-08T04:40:37;97826.03;;;4.50;66.66
21096;BME280;10706;49.036;12.112;2023-04-08T04:43:03;97831.94;;;4.45;66.59
21096;BME280;10706;49.036;12.112;2023-04-08T04:45:29;97826.63;;;4.45;65.66
21096;BME280;10706;49.036;12.112;2023-04-08T04:47:55;97829.66;;;4.42;66.16
21096;BME280;10706;49.036;12.112;2023-04-08T04:50:21;97834.06;;;4.35;66.53
21096;BME280;10706;49.036;12.112;2023-04-08T04:52:47;97830.63;;;4.34;66.72
21096;BME280;10706;49.036;12.112;2023-04-08T04:55:13;97829.81;;;4.34;66.60
21096;BME280;10706;49.036;12.112;2023-04-08T04:57:40;97831.44;;;4.35;68.17
21096;BME280;10706;49.036;12.112;2023-04-08T05:00:07;97838.38;;;4.36;67.00
21096;BME280;10706;49.036;12.112;2023-04-08T05:02:33;97836.97;;;4.40;66.56
21096;BME280;10706;49.036;12.112;2023-04-08T05:04:59;97840.66;;;4.45;67.84
21096;BME280;10706;49.036;12.112;2023-04-08T05:07:24;97846.75;;;4.46;67.88
21096;BME280;10706;49.036;12.112;2023-04-08T05:09:50;97843.63;;;4.64;67.24
21096;BME280;10706;49.036;12.112;2023-04-08T05:12:16;97845.59;;;4.90;65.07
21096;BME280;10706;49.036;12.112;2023-04-08T05:14:42;97851.22;;;4.74;66.26
21096;BME280;10706;49.036;12.112;2023-04-08T05:17:08;97849.13;;;4.62;65.82
21096;BME280;10706;49.036;12.112;2023-04-08T05:19:34;97851.91;;;4.89;65.96
21096;BME280;10706;49.036;12.112;2023-04-08T05:22:00;97857.75;;;4.78;65.80
21096;BME280;10706;49.036;12.112;2023-04-08T05:24:25;97856.50;;;4.74;66.76
21096;BME280;10706;49.036;12.112;2023-04-08T05:26:51;97850.47;;;4.86;65.88
21096;BME280;10706;49.036;12.112;2023-04-08T05:29:18;97860.38;;;4.78;68.15
21096;BME280;10706;49.036;12.112;2023-04-08T05:31:44;97863.41;;;4.75;69.08
21096;BME280;10706;49.036;12.112;2023-04-08T05:34:10;97879.88;;;4.70;69.29
21096;BME280;10706;49.036;12.112;2023-04-08T05:36:36;97874.81;;;4.75;70.75
21096;BME280;10706;49.036;12.112;2023-04-08T05:39:02;97884.47;;;4.61;72.04
21096;BME280;10706;49.036;12.112;2023-04-08T05:41:27;97878.66;;;4.44;73.91
21096;BME280;10706;49.036;12.112;2023-04-08T05:43:53;97890.34;;;4.28;75.82
21096;BME280;10706;49.036;12.112;2023-04-08T05:46:19;97889.00;;;4.11;76.58
21096;BME280;10706;49.036;12.112;2023-04-08T05:48:45;97899.56;;;3.89;79.54
21096;BME280;10706;49.036;12.112;2023-04-08T05:51:15;97897.81;;;3.97;77.70
21096;BME280;10706;49.036;12.112;2023-04-08T05:53:44;97900.19;;;3.70;80.81
21096;BME280;10706;49.036;12.112;2023-04-08T05:56:10;97906.19;;;3.64;80.92
21096;BME280;10706;49.036;12.112;2023-04-08T05:58:35;97906.41;;;3.62;81.92
21096;BME280;10706;49.036;12.112;2023-04-08T06:01:01;97908.97;;;3.41;84.04
21096;BME280;10706;49.036;12.112;2023-04-08T06:03:27;97917.00;;;3.33;85.87
21096;BME280;10706;49.036;12.112;2023-04-08T06:05:53;97912.09;;;3.29;86.02
21096;BME280;10706;49.036;12.112;2023-04-08T06:08:19;97918.75;;;3.10;88.63
21096;BME280;10706;49.036;12.112;2023-04-08T06:10:50;97926.94;;;3.16;89.72
21096;BME280;10706;49.036;12.112;2023-04-08T06:13:16;97923.00;;;3.11;90.22
21096;BME280;10706;49.036;12.112;2023-04-08T06:15:42;97927.94;;;3.00;92.33
21096;BME280;10706;49.036;12.112;2023-04-08T06:18:07;97931.13;;;3.10;93.60
21096;BME280;10706;49.036;12.112;2023-04-08T06:20:34;97931.03;;;3.03;92.24
21096;BME280;10706;49.036;12.112;2023-04-08T06:23:01;97938.22;;;2.80;94.42
21096;BME280;10706;49.036;12.112;2023-04-08T06:25:26;97945.13;;;2.81;94.32
21096;BME280;10706;49.036;12.112;2023-04-08T06:27:52;97942.50;;;2.96;95.59
21096;BME280;10706;49.036;12.112;2023-04-08T06:30:18;97941.56;;;2.88;96.65
21096;BME280;10706;49.036;12.112;2023-04-08T06:32:44;97941.72;;;2.72;96.90
21096;BME280;10706;49.036;12.112;2023-04-08T06:35:12;97951.00;;;2.68;97.74
21096;BME280;10706;49.036;12.112;2023-04-08T06:37:38;97943.94;;;2.68;97.19
21096;BME280;10706;49.036;12.112;2023-04-08T06:40:05;97951.84;;;2.83;98.79
21096;BME280;10706;49.036;12.112;2023-04-08T06:42:31;97953.75;;;2.75;99.20
21096;BME280;10706;49.036;12.112;2023-04-08T06:44:56;97954.75;;;2.73;99.52
21096;BME280;10706;49.036;12.112;2023-04-08T06:47:23;97956.25;;;2.91;97.13
21096;BME280;10706;49.036;12.112;2023-04-08T06:49:48;97955.84;;;2.94;95.88
21096;BME280;10706;49.036;12.112;2023-04-08T06:52:14;97964.13;;;2.76;97.19
21096;BME280;10706;49.036;12.112;2023-04-08T06:54:40;97958.66;;;2.78;98.28
21096;BME280;10706;49.036;12.112;2023-04-08T06:57:06;97960.47;;;2.77;98.20
21096;BME280;10706;49.036;12.112;2023-04-08T06:59:31;97960.28;;;2.64;98.47
21096;BME280;10706;49.036;12.112;2023-04-08T07:01:57;97961.28;;;2.78;97.76
21096;BME280;10706;49.036;12.112;2023-04-08T07:04:23;97966.56;;;2.78;97.44
21096;BME280;10706;49.036;12.112;2023-04-08T07:06:49;97960.56;;;2.69;98.93
21096;BME280;10706;49.036;12.112;2023-04-08T07:09:15;97969.72;;;2.58;99.46
21096;BME280;10706;49.036;12.112;2023-04-08T07:11:41;97970.44;;;2.52;100.00
21096;BME280;10706;49.036;12.112;2023-04-08T07:14:06;97975.53;;;2.53;100.00
21096;BME280;10706;49.036;12.112;2023-04-08T07:16:32;97968.34;;;2.62;100.00
21096;BME280;10706;49.036;12.112;2023-04-08T07:18:58;97983.00;;;2.65;100.00
21096;BME280;10706;49.036;12.112;2023-04-08T07:21:24;97974.03;;;2.74;100.00
21096;BME280;10706;49.036;12.112;2023-04-08T07:23:50;97978.75;;;2.79;100.00
21096;BME280;10706;49.036;12.112;2023-04-08T07:26:16;97982.84;;;2.81;100.00
21096;BME280;10706;49.036;12.112;2023-04-08T07:28:41;97982.03;;;2.81;100.00
21096;BME280;10706;49.036;12.112;2023-04-08T07:31:17;97990.34;;;3.07;100.00
21096;BME280;10706;49.036;12.112;2023-04-08T07:33:44;97983.88;;;2.95;100.00
21096;BME280;10706;49.036;12.112;2023-04-08T07:36:12;97989.25;;;3.17;100.00
21096;BME280;10706;49.036;12.112;2023-04-08T07:38:38;97990.81;;;3.26;99.86
21096;BME280;10706;49.036;12.112;2023-04-08T07:41:04;97987.88;;;3.21;99.96
21096;BME280;10706;49.036;12.112;2023-04-08T07:43:31;97993.53;;;3.18;98.52
21096;BME280;10706;49.036;12.112;2023-04-08T07:46:05;97988.78;;;3.28;99.37
21096;BME280;10706;49.036;12.112;2023-04-08T07:48:32;97993.91;;;3.44;96.41
21096;BME280;10706;49.036;12.112;2023-04-08T07:51:03;97999.00;;;3.46;97.46
21096;BME280;10706;49.036;12.112;2023-04-08T07:53:29;97995.16;;;3.48;96.92
21096;BME280;10706;49.036;12.112;2023-04-08T07:55:56;98001.34;;;3.56;95.84
21096;BME280;10706;49.036;12.112;2023-04-08T07:58:22;97999.63;;;3.33;97.70
21096;BME280;10706;49.036;12.112;2023-04-08T08:00:49;97993.41;;;3.70;96.22
21096;BME280;10706;49.036;12.112;2023-04-08T08:03:15;97997.72;;;3.57;96.14
21096;BME280;10706;49.036;12.112;2023-04-08T08:05:41;97998.88;;;3.54;97.74
21096;BME280;10706;49.036;12.112;2023-04-08T08:08:07;98004.50;;;3.81;96.96
21096;BME280;10706;49.036;12.112;2023-04-08T08:10:39;98005.47;;;3.95;95.87
21096;BME280;10706;49.036;12.112;2023-04-08T08:13:05;98013.50;;;3.72;96.19
21096;BME280;10706;49.036;12.112;2023-04-08T08:15:32;98011.16;;;3.77;96.10
21096;BME280;10706;49.036;12.112;2023-04-08T08:17:57;98009.59;;;3.82;95.69
21096;BME280;10706;49.036;12.112;2023-04-08T08:20:23;98017.31;;;3.99;94.47
21096;BME280;10706;49.036;12.112;2023-04-08T08:22:49;98022.94;;;3.96;95.58
21096;BME280;10706;49.036;12.112;2023-04-08T08:25:15;98030.44;;;4.28;94.58
21096;BME280;10706;49.036;12.112;2023-04-08T08:27:42;98018.97;;;4.21;94.07
21096;BME280;10706;49.036;12.112;2023-04-08T08:30:08;98026.09;;;4.21;92.58
21096;BME280;10706;49.036;12.112;2023-04-08T08:32:34;98023.41;;;3.99;94.07
21096;BME280;10706;49.036;12.112;2023-04-08T08:35:01;98019.78;;;3.85;94.74
21096;BME280;10706;49.036;12.112;2023-04-08T08:37:26;98024.47;;;4.05;94.35
21096;BME280;10706;49.036;12.112;2023-04-08T08:39:52;98025.97;;;4.29;93.07
21096;BME280;10706;49.036;12.112;2023-04-08T08:42:25;98025.91;;;4.44;92.32
21096;BME280;10706;49.036;12.112;2023-04-08T08:44:51;98030.34;;;4.00;95.08
21096;BME280;10706;49.036;12.112;2023-04-08T08:47:17;98029.09;;;4.18;96.35
21096;BME280;10706;49.036;12.112;2023-04-08T08:49:44;98022.06;;;4.46;93.33
21096;BME280;10706;49.036;12.112;2023-04-08T09:05:20;98046.69;;;4.47;94.64
21096;BME280;10706;49.036;12.112;2023-04-08T09:07:46;98050.84;;;4.78;90.69
21096;BME280;10706;49.036;12.112;2023-04-08T09:10:12;98047.38;;;4.34;93.66
21096;BME280;10706;49.036;12.112;2023-04-08T09:12:53;98043.75;;;4.20;94.37
21096;BME280;10706;49.036;12.112;2023-04-08T09:15:20;98053.59;;;4.48;93.48
21096;BME280;10706;49.036;12.112;2023-04-08T09:17:46;98049.09;;;4.92;91.91
21096;BME280;10706;49.036;12.112;2023-04-08T09:20:12;98044.03;;;4.68;92.24
21096;BME280;10706;49.036;12.112;2023-04-08T09:22:55;98052.75;;;4.62;92.97
21096;BME280;10706;49.036;12.112;2023-04-08T09:25:26;98054.38;;;4.85;91.24
21096;BME280;10706;49.036;12.112;2023-04-08T09:27:53;98052.50;;;4.79;92.00
21096;BME280;10706;49.036;12.112;2023-04-08T09:30:22;98053.28;;;4.79;92.77
21096;BME280;10706;49.036;12.112;2023-04-08T09:32:56;98055.00;;;4.87;92.02
21096;BME280;10706;49.036;12.112;2023-04-08T09:35:23;98055.44;;;4.91;92.75
21096;BME280;10706;49.036;12.112;2023-04-08T09:37:50;98052.34;;;4.87;90.89
21096;BME280;10706;49.036;12.112;2023-04-08T09:40:16;98063.19;;;4.92;92.41
21096;BME280;10706;49.036;12.112;2023-04-08T09:42:47;98064.00;;;5.21;90.37
21096;BME280;10706;49.036;12.112;2023-04-08T09:45:17;98056.19;;;4.84;92.63
21096;BME280;10706;49.036;12.112;2023-04-08T09:48:03;98060.13;;;4.95;92.89
21096;BME280;10706;49.036;12.112;2023-04-08T09:50:42;98062.94;;;5.43;89.36
21096;BME280;10706;49.036;12.112;2023-04-08T09:53:23;98061.97;;;5.23;91.75
21096;BME280;10706;49.036;12.112;2023-04-08T09:55:55;98060.56;;;5.27;91.02
21096;BME280;10706;49.036;12.112;2023-04-08T09:58:28;98065.09;;;5.61;88.95
21096;BME280;10706;49.036;12.112;2023-04-08T10:00:57;98061.84;;;5.66;88.03
21096;BME280;10706;49.036;12.112;2023-04-08T10:03:32;98062.16;;;5.50;89.13
21096;BME280;10706;49.036;12.112;2023-04-08T10:06:01;98070.41;;;5.68;87.43
21096;BME280;10706;49.036;12.112;2023-04-08T10:08:28;98066.63;;;5.42;88.96
21096;BME280;10706;49.036;12.112;2023-04-08T10:10:55;98070.09;;;5.50;88.73
21096;BME280;10706;49.036;12.112;2023-04-08T10:13:22;98066.81;;;5.41;90.45
21096;BME280;10706;49.036;12.112;2023-04-08T10:15:50;98070.81;;;5.65;88.48
21096;BME280;10706;49.036;12.112;2023-04-08T10:18:36;98070.06;;;5.78;88.90
21096;BME280;10706;49.036;12.112;2023-04-08T10:21:02;98068.16;;;6.00;87.08
21096;BME280;10706;49.036;12.112;2023-04-08T10:23:56;98064.34;;;5.39;89.80
21096;BME280;10706;49.036;12.112;2023-04-08T10:31:53;98070.84;;;6.07;86.54
21096;BME280;10706;49.036;12.112;2023-04-08T10:34:21;98072.56;;;5.93;86.76
21096;BME280;10706;49.036;12.112;2023-04-08T10:36:49;98074.66;;;5.62;88.62
21096;BME280;10706;49.036;12.112;2023-04-08T10:39:16;98077.75;;;5.66;89.14
21096;BME280;10706;49.036;12.112;2023-04-08T10:41:47;98081.88;;;5.75;89.18
21096;BME280;10706;49.036;12.112;2023-04-08T10:44:24;98081.03;;;6.03;87.27
21096;BME280;10706;49.036;12.112;2023-04-08T10:46:52;98082.50;;;6.12;87.48
21096;BME280;10706;49.036;12.112;2023-04-08T10:49:18;98087.75;;;6.06;87.82
21096;BME280;10706;49.036;12.112;2023-04-08T10:51:45;98079.44;;;6.15;87.18
21096;BME280;10706;49.036;12.112;2023-04-08T10:54:16;98081.69;;;6.18;85.87
21096;BME280;10706;49.036;12.112;2023-04-08T10:56:52;98084.19;;;6.40;85.06
21096;BME280;10706;49.036;12.112;2023-04-08T10:59:30;98090.88;;;6.22;86.04
21096;BME280;10706;49.036;12.112;2023-04-08T11:01:57;98081.09;;;6.23;85.78
21096;BME280;10706;49.036;12.112;2023-04-08T11:04:24;98081.59;;;5.98;87.27
21096;BME280;10706;49.036;12.112;2023-04-08T11:06:50;98079.28;;;6.23;86.19
21096;BME280;10706;49.036;12.112;2023-04-08T11:09:16;98078.66;;;6.28;87.38
21096;BME280;10706;49.036;12.112;2023-04-08T11:11:44;98081.31;;;6.28;86.20
21096;BME280;10706;49.036;12.112;2023-04-08T11:14:12;98079.72;;;6.47;83.72
21096;BME280;10706;49.036;12.112;2023-04-08T11:16:39;98087.00;;;6.18;86.33
21096;BME280;10706;49.036;12.112;2023-04-08T11:19:06;98074.63;;;6.39;84.73
21096;BME280;10706;49.036;12.112;2023-04-08T11:21:35;98071.63;;;6.55;84.28
21096;BME280;10706;49.036;12.112;2023-04-08T11:24:05;98071.63;;;6.69;82.45
21096;BME280;10706;49.036;12.112;2023-04-08T11:26:31;98071.63;;;6.55;82.21
21096;BME280;10706;49.036;12.112;2023-04-08T11:28:57;98074.59;;;6.32;83.61
21096;BME280;10706;49.036;12.112;2023-04-08T11:31:25;98076.47;;;6.45;83.19
21096;BME280;10706;49.036;12.112;2023-04-08T11:33:53;98073.59;;;6.40;83.21
21096;BME280;10706;49.036;12.112;2023-04-08T11:36:40;98078.09;;;6.39;84.23
21096;BME280;10706;49.036;12.112;2023-04-08T11:39:16;98075.03;;;6.42;85.16
21096;BME280;10706;49.036;12.112;2023-04-08T11:41:42;98075.47;;;6.46;84.59
21096;BME280;10706;49.036;12.112;2023-04-08T11:44:08;98076.50;;;6.52;83.92
21096;BME280;10706;49.036;12.112;2023-04-08T11:46:34;98069.38;;;6.79;82.49
21096;BME280;10706;49.036;12.112;2023-04-08T11:49:06;98070.00;;;6.68;83.87
21096;BME280;10706;49.036;12.112;2023-04-08T11:51:34;98078.78;;;6.75;81.50
21096;BME280;10706;49.036;12.112;2023-04-08T11:54:29;98075.66;;;6.51;83.25
21096;BME280;10706;49.036;12.112;2023-04-08T11:56:57;98078.59;;;6.76;83.80
21096;BME280;10706;49.036;12.112;2023-04-08T11:59:24;98078.75;;;6.61;83.81
21096;BME280;10706;49.036;12.112;2023-04-08T12:01:51;98082.25;;;6.69;82.75
21096;BME280;10706;49.036;12.112;2023-04-08T12:04:17;98087.56;;;6.75;82.70
21096;BME280;10706;49.036;12.112;2023-04-08T12:06:43;98089.19;;;6.76;82.53
21096;BME280;10706;49.036;12.112;2023-04-08T12:09:12;98092.81;;;6.49;83.28
21096;BME280;10706;49.036;12.112;2023-04-08T12:11:38;98090.75;;;6.44;84.84
21096;BME280;10706;49.036;12.112;2023-04-08T12:14:03;98091.47;;;6.79;81.85
21096;BME280;10706;49.036;12.112;2023-04-08T12:16:30;98095.88;;;6.52;82.75
21096;BME280;10706;49.036;12.112;2023-04-08T12:18:55;98096.91;;;6.58;83.76
21096;BME280;10706;49.036;12.112;2023-04-08T12:21:21;98095.50;;;6.62;84.60
21096;BME280;10706;49.036;12.112;2023-04-08T12:23:47;98096.72;;;6.66;83.96
21096;BME280;10706;49.036;12.112;2023-04-08T12:26:12;98100.78;;;6.62;83.83
21096;BME280;10706;49.036;12.112;2023-04-08T12:28:39;98099.78;;;6.70;83.91
21096;BME280;10706;49.036;12.112;2023-04-08T12:31:04;98094.91;;;6.67;83.60
21096;BME280;10706;49.036;12.112;2023-04-08T12:33:30;98097.97;;;6.77;83.13
21096;BME280;10706;49.036;12.112;2023-04-08T12:35:57;98103.00;;;6.45;84.81
21096;BME280;10706;49.036;12.112;2023-04-08T12:38:24;98101.34;;;6.37;85.50
21096;BME280;10706;49.036;12.112;2023-04-08T12:40:51;98100.53;;;6.43;85.83
21096;BME280;10706;49.036;12.112;2023-04-08T12:43:18;98104.84;;;6.51;85.35
21096;BME280;10706;49.036;12.112;2023-04-08T12:45:43;98109.59;;;6.63;85.72
21096;BME280;10706;49.036;12.112;2023-04-08T12:48:09;98112.25;;;6.63;85.68
21096;BME280;10706;49.036;12.112;2023-04-08T12:50:35;98109.19;;;6.66;84.88
21096;BME280;10706;49.036;12.112;2023-04-08T12:53:01;98100.19;;;6.73;84.24
21096;BME280;10706;49.036;12.112;2023-04-08T12:55:27;98107.78;;;6.76;83.33
21096;BME280;10706;49.036;12.112;2023-04-08T12:57:52;98103.06;;;6.78;82.35
21096;BME280;10706;49.036;12.112;2023-04-08T13:00:18;98105.13;;;6.76;83.58
21096;BME280;10706;49.036;12.112;2023-04-08T13:02:45;98107.97;;;6.68;84.12
21096;BME280;10706;49.036;12.112;2023-04-08T13:05:11;98106.34;;;6.74;83.56
21096;BME280;10706;49.036;12.112;2023-04-08T13:07:36;98108.59;;;6.84;82.89
21096;BME280;10706;49.036;12.112;2023-04-08T13:10:03;98103.91;;;6.92;82.87
21096;BME280;10706;49.036;12.112;2023-04-08T13:12:29;98112.66;;;6.73;84.70
21096;BME280;10706;49.036;12.112;2023-04-08T13:14:55;98111.41;;;6.62;84.52
21096;BME280;10706;49.036;12.112;2023-04-08T13:17:20;98112.47;;;6.74;85.07
21096;BME280;10706;49.036;12.112;2023-04-08T13:19:46;98108.22;;;6.93;84.70
21096;BME280;10706;49.036;12.112;2023-04-08T13:22:14;98106.19;;;7.22;83.84